Time;durP1;ratioP1;P1;durP2;ratioP2;P2;SDS_P1;SDS_P2;PMS_P1;PMS_P2;Temp;Humidity;BMP_temperature;BMP_pressure;BME280_temperature;BME280_humidity;BME280_pressure;Samples;Min_cycle;Max_cycle;Signal;HPM_P1;HPM_P2
2023/06/09 00:01:53;;;;;;;4.40;0.90;;;;;;;17.78;100.00;100054.33;105505;1254;59730;-47
2023/06/09 00:04:23;;;;;;;1.30;0.80;;;;;;;17.74;100.00;100053.15;109128;1253;72885;-47
2023/06/09 00:06:52;;;;;;;4.50;0.80;;;;;;;17.71;100.00;100050.05;109204;1253;67598;-48
2023/06/09 00:09:20;;;;;;;1.30;0.90;;;;;;;17.70;100.00;100049.05;109058;1253;73158;-48
2023/06/09 00:11:47;;;;;;;1.40;1.00;;;;;;;17.70;100.00;100048.88;109139;1254;60052;-47
2023/06/09 00:14:15;;;;;;;2.00;1.00;;;;;;;17.70;100.00;100048.31;109033;1253;58864;-46
2023/06/09 00:16:46;;;;;;;1.60;0.90;;;;;;;17.70;100.00;100044.92;109042;1254;72402;-47
2023/06/09 00:19:14;;;;;;;1.60;0.80;;;;;;;17.69;100.00;100045.34;109068;1254;70338;-47
2023/06/09 00:21:46;;;;;;;3.50;1.00;;;;;;;17.66;100.00;100044.09;109096;1254;72031;-47
2023/06/09 00:24:14;;;;;;;2.90;0.80;;;;;;;17.63;100.00;100043.06;106143;1259;60159;-47
2023/06/09 00:26:41;;;;;;;1.50;1.00;;;;;;;17.59;100.00;100037.14;105433;1260;59582;-44
2023/06/09 00:29:09;;;;;;;1.10;0.80;;;;;;;17.56;100.00;100037.92;105444;1254;72408;-48
2023/06/09 00:31:36;;;;;;;2.60;0.70;;;;;;;17.53;100.00;100037.03;105412;1254;65870;-47
2023/06/09 00:34:03;;;;;;;1.30;0.70;;;;;;;17.51;100.00;100035.20;105297;1254;72089;-48
2023/06/09 00:36:30;;;;;;;0.70;0.60;;;;;;;17.49;100.00;100029.90;105381;1254;61687;-47
2023/06/09 00:38:58;;;;;;;1.50;1.00;;;;;;;17.48;100.00;100033.26;105416;1257;59628;-47
2023/06/09 00:41:25;;;;;;;1.00;0.80;;;;;;;17.47;100.00;100029.16;105332;1260;73959;-47
2023/06/09 00:43:55;;;;;;;6.20;0.80;;;;;;;17.47;100.00;100030.97;105402;1257;66316;-49
2023/06/09 00:46:22;;;;;;;1.00;0.90;;;;;;;17.46;100.00;100025.23;105426;1254;71394;-48
2023/06/09 00:48:50;;;;;;;2.70;0.90;;;;;;;17.44;100.00;100025.36;105349;1256;60537;-47
2023/06/09 00:51:17;;;;;;;1.00;0.90;;;;;;;17.42;100.00;100025.20;105513;1258;60335;-46
2023/06/09 00:53:44;;;;;;;2.60;0.90;;;;;;;17.37;100.00;100021.52;105182;1259;73872;-45
2023/06/09 00:56:12;;;;;;;2.80;1.00;;;;;;;17.33;100.00;100022.73;105835;1256;68934;-47
2023/06/09 00:58:39;;;;;;;3.10;1.10;;;;;;;17.27;100.00;100016.59;105308;1258;72683;-48
2023/06/09 01:01:06;;;;;;;1.10;0.90;;;;;;;17.23;100.00;100015.10;105189;1256;61825;-46
2023/06/09 01:03:34;;;;;;;2.40;0.80;;;;;;;17.19;100.00;100016.66;105336;1256;60444;-47
2023/06/09 01:06:16;;;;;;;1.20;0.90;;;;;;;17.16;100.00;100017.39;105276;1256;73995;-47
2023/06/09 01:08:49;;;;;;;1.90;0.90;;;;;;;17.16;100.00;100017.98;105469;1256;67689;-49
2023/06/09 01:11:43;;;;;;;2.80;1.00;;;;;;;17.16;100.00;100022.31;105173;1261;72860;-47
2023/06/09 01:14:24;;;;;;;2.20;0.90;;;;;;;17.17;100.00;100020.61;105296;1254;60511;-45
2023/06/09 01:16:57;;;;;;;2.20;0.90;;;;;;;17.17;100.00;100016.44;105571;1258;60331;-45
2023/06/09 01:19:32;;;;;;;1.30;1.00;;;;;;;17.15;100.00;100013.54;105214;1259;71940;-45
2023/06/09 01:22:02;;;;;;;3.00;1.00;;;;;;;17.12;100.00;100016.24;105817;1253;65573;-47
2023/06/09 01:24:51;;;;;;;1.00;0.90;;;;;;;17.09;100.00;100012.65;105228;1259;72604;-44
2023/06/09 01:27:18;;;;;;;1.40;0.90;;;;;;;17.06;100.00;100013.95;105404;1255;60540;-47
2023/06/09 01:29:47;;;;;;;2.30;1.00;;;;;;;17.03;100.00;100010.51;105838;1260;60441;-46
2023/06/09 01:32:15;;;;;;;2.80;0.70;;;;;;;17.01;100.00;100007.22;106129;1258;73771;-46
2023/06/09 01:34:43;;;;;;;1.70;0.80;;;;;;;16.97;100.00;100009.66;105868;1260;69302;-48
2023/06/09 01:37:12;;;;;;;1.10;1.00;;;;;;;16.95;100.00;100009.10;105467;1254;72790;-45
2023/06/09 01:39:40;;;;;;;5.20;1.00;;;;;;;16.93;100.00;100010.48;105816;1254;60362;-45
2023/06/09 01:42:07;;;;;;;1.60;0.80;;;;;;;16.92;100.00;100010.98;105292;1257;60598;-45
2023/06/09 01:44:35;;;;;;;1.30;1.00;;;;;;;16.90;100.00;100010.75;105563;1253;72555;-44
2023/06/09 01:47:03;;;;;;;6.00;1.00;;;;;;;16.88;100.00;100009.27;105454;1259;66542;-46
2023/06/09 01:49:39;;;;;;;5.30;1.20;;;;;;;16.85;100.00;100008.06;106846;1256;72654;-47
2023/06/09 01:52:16;;;;;;;1.40;1.20;;;;;;;16.81;100.00;100009.93;105400;1260;60429;-48
2023/06/09 01:54:54;;;;;;;1.90;1.30;;;;;;;16.77;100.00;100011.31;105399;1254;60624;-47
2023/06/09 01:57:31;;;;;;;2.90;0.90;;;;;;;16.73;100.00;100012.16;105786;1253;73800;-47
2023/06/09 02:00:04;;;;;;;1.60;1.10;;;;;;;16.69;100.00;100011.65;105357;1260;65359;-48
2023/06/09 02:02:40;;;;;;;2.20;1.00;;;;;;;16.65;100.00;100008.67;105486;1260;72601;-49
2023/06/09 02:05:08;;;;;;;1.10;1.00;;;;;;;16.60;100.00;100014.05;105142;1254;60783;-47
2023/06/09 02:07:35;;;;;;;0.70;0.70;;;;;;;16.56;100.00;100014.55;104970;1264;60365;-48
2023/06/09 02:10:03;;;;;;;1.90;0.90;;;;;;;16.53;100.00;100014.71;105225;1254;74970;-46
2023/06/09 02:12:32;;;;;;;1.80;1.20;;;;;;;16.53;100.00;100013.69;105452;1259;66305;-43
2023/06/09 02:14:59;;;;;;;3.80;1.00;;;;;;;16.51;100.00;100012.31;105371;1257;71938;-46
2023/06/09 02:17:27;;;;;;;1.00;0.90;;;;;;;16.51;100.00;100011.57;105261;1259;61643;-48
2023/06/09 02:19:55;;;;;;;1.00;0.90;;;;;;;16.52;100.00;100014.05;105412;1260;60450;-47
2023/06/09 02:22:22;;;;;;;1.20;0.90;;;;;;;16.52;100.00;100012.27;105356;1259;74290;-47
2023/06/09 02:24:52;;;;;;;1.80;0.90;;;;;;;16.53;100.00;100014.02;105287;1259;66672;-46
2023/06/09 02:27:20;;;;;;;1.30;1.10;;;;;;;16.53;100.00;100011.86;105224;1254;71969;-47
2023/06/09 02:29:47;;;;;;;3.20;0.90;;;;;;;16.54;100.00;100011.23;105941;1256;60384;-46
2023/06/09 02:32:15;;;;;;;1.90;1.10;;;;;;;16.55;100.00;100010.98;105336;1259;60443;-48
2023/06/09 02:34:42;;;;;;;3.10;1.20;;;;;;;16.56;100.00;100010.36;105323;1254;74252;-48
2023/06/09 02:37:09;;;;;;;1.50;1.10;;;;;;;16.59;100.00;100009.09;105218;1259;66528;-46
2023/06/09 02:39:37;;;;;;;1.10;1.00;;;;;;;16.61;100.00;100014.19;105280;1257;72370;-46
2023/06/09 02:42:05;;;;;;;2.30;1.00;;;;;;;16.61;100.00;100010.56;105278;1257;60435;-53
2023/06/09 02:44:32;;;;;;;1.20;1.10;;;;;;;16.62;100.00;100015.23;105452;1255;60350;-47
2023/06/09 02:47:00;;;;;;;2.20;1.00;;;;;;;16.63;100.00;100014.45;105193;1259;72866;-45
2023/06/09 02:49:27;;;;;;;1.10;0.90;;;;;;;16.63;100.00;100020.38;105216;1254;67565;-46
2023/06/09 02:51:55;;;;;;;1.30;1.00;;;;;;;16.65;100.00;100023.02;105336;1259;71415;-46
2023/06/09 02:54:22;;;;;;;1.00;0.90;;;;;;;16.68;100.00;100025.02;105283;1254;61812;-48
2023/06/09 02:56:51;;;;;;;2.90;1.00;;;;;;;16.71;100.00;100030.78;105356;1253;60450;-47
2023/06/09 02:59:19;;;;;;;6.30;0.80;;;;;;;16.74;100.00;100031.65;106172;1253;74352;-47
2023/06/09 03:01:47;;;;;;;1.80;0.90;;;;;;;16.78;100.00;100032.08;105235;1256;67585;-47
2023/06/09 03:04:17;;;;;;;1.50;0.90;;;;;;;16.82;100.00;100032.70;105323;1259;72318;-45
2023/06/09 03:06:48;;;;;;;1.10;1.00;;;;;;;16.88;100.00;100036.80;108989;1253;60751;-46
2023/06/09 03:09:16;;;;;;;2.70;1.10;;;;;;;16.94;100.00;100038.19;108800;1253;58862;-46
2023/06/09 03:11:46;;;;;;;1.80;0.90;;;;;;;17.00;100.00;100042.70;108891;1253;74850;-47
2023/06/09 03:14:13;;;;;;;2.10;1.00;;;;;;;17.06;100.00;100043.55;106113;1257;66650;-45
2023/06/09 03:16:41;;;;;;;1.50;1.00;;;;;;;17.12;100.00;100042.91;105348;1257;73535;-46
2023/06/09 03:19:09;;;;;;;1.00;0.90;;;;;;;17.17;100.00;100043.29;105191;1257;60544;-46
2023/06/09 03:21:36;;;;;;;1.50;1.00;;;;;;;17.21;100.00;100046.04;108997;1256;59996;-47
2023/06/09 03:24:05;;;;;;;2.80;1.60;;;;;;;17.26;100.00;100046.11;108940;1253;73035;-48
2023/06/09 03:26:34;;;;;;;1.30;1.20;;;;;;;17.28;100.00;100049.19;108926;1253;67690;-47
2023/06/09 03:29:01;;;;;;;2.40;0.90;;;;;;;17.30;100.00;100050.30;108997;1255;71306;-47
2023/06/09 03:31:29;;;;;;;1.20;1.10;;;;;;;17.32;100.00;100055.79;108801;1253;60750;-47
2023/06/09 03:33:57;;;;;;;2.60;1.00;;;;;;;17.34;100.00;100057.85;108976;1253;58732;-48
2023/06/09 03:36:24;;;;;;;2.80;1.00;;;;;;;17.34;100.00;100060.49;109009;1254;75546;-48
2023/06/09 03:38:53;;;;;;;2.30;1.00;;;;;;;17.37;100.00;100060.48;108928;1254;68124;-48
2023/06/09 03:41:21;;;;;;;3.30;0.90;;;;;;;17.42;100.00;100063.08;108998;1256;74525;-47
2023/06/09 03:43:48;;;;;;;1.50;0.90;;;;;;;17.47;100.00;100064.73;109057;1253;59398;-49
2023/06/09 03:46:15;;;;;;;4.30;0.90;;;;;;;17.53;100.00;100063.02;106178;1254;60516;-47
2023/06/09 03:48:43;;;;;;;1.10;1.00;;;;;;;17.60;100.00;100069.20;105961;1254;73347;-47
2023/06/09 03:51:11;;;;;;;1.10;1.00;;;;;;;17.68;100.00;100072.27;105286;1254;66782;-45
2023/06/09 03:53:38;;;;;;;1.90;0.90;;;;;;;17.75;100.00;100071.26;105372;1254;72651;-48
2023/06/09 03:56:07;;;;;;;3.30;1.10;;;;;;;17.81;100.00;100071.69;105987;1256;60505;-47
2023/06/09 03:58:34;;;;;;;1.50;1.40;;;;;;;17.86;100.00;100074.61;105466;1254;60479;-47
2023/06/09 04:01:02;;;;;;;2.90;1.00;;;;;;;17.91;100.00;100074.08;105309;1254;73981;-48
2023/06/09 04:03:30;;;;;;;2.40;1.60;;;;;;;17.95;100.00;100075.77;105366;1257;66715;-46
2023/06/09 04:05:57;;;;;;;2.50;1.00;;;;;;;17.98;100.00;100073.87;105277;1254;72467;-48
2023/06/09 04:08:25;;;;;;;1.20;1.10;;;;;;;18.00;100.00;100081.52;105506;1257;61696;-45
2023/06/09 04:10:53;;;;;;;1.40;1.30;;;;;;;18.02;100.00;100080.50;105318;1254;60489;-45
2023/06/09 04:13:20;;;;;;;1.10;1.00;;;;;;;18.04;100.00;100085.20;105320;1257;73812;-47
2023/06/09 04:15:48;;;;;;;3.40;1.10;;;;;;;18.04;100.00;100084.83;105440;1260;66594;-47
2023/06/09 04:18:16;;;;;;;3.70;1.30;;;;;;;18.07;100.00;100084.46;105945;1259;72665;-46
2023/06/09 04:20:43;;;;;;;2.70;1.00;;;;;;;18.11;100.00;100086.33;105459;1254;62659;-44
2023/06/09 04:23:10;;;;;;;1.60;1.30;;;;;;;18.16;100.00;100084.70;105382;1256;60459;-46
2023/06/09 04:25:41;;;;;;;2.30;1.10;;;;;;;18.22;100.00;100082.45;105642;1253;73586;-45
2023/06/09 04:28:12;;;;;;;1.20;1.10;;;;;;;18.28;100.00;100084.52;105324;1254;66512;-47
2023/06/09 04:30:40;;;;;;;1.20;1.10;;;;;;;18.35;100.00;100085.67;105457;1259;73142;-46
2023/06/09 04:33:12;;;;;;;3.20;1.20;;;;;;;18.43;100.00;100090.70;105484;1256;60479;-47
2023/06/09 04:35:41;;;;;;;1.40;1.30;;;;;;;18.50;100.00;100093.95;106575;1254;60323;-48
2023/06/09 04:38:10;;;;;;;1.60;1.50;;;;;;;18.56;100.00;100092.63;105516;1261;74687;-46
2023/06/09 04:40:39;;;;;;;4.90;1.30;;;;;;;18.61;100.00;100090.59;105564;1254;68044;-44
2023/06/09 04:43:07;;;;;;;3.50;1.30;;;;;;;18.67;100.00;100094.90;105294;1254;70588;-46
2023/06/09 04:45:35;;;;;;;3.90;1.40;;;;;;;18.68;100.00;100093.38;106153;1259;60473;-45
2023/06/09 04:48:19;;;;;;;4.00;1.10;;;;;;;18.70;100.00;100096.27;105340;1259;60449;-47
2023/06/09 04:50:47;;;;;;;2.30;1.30;;;;;;;18.74;100.00;100100.48;105151;1254;75490;-46
2023/06/09 04:53:18;;;;;;;1.30;1.20;;;;;;;18.80;100.00;100098.63;105602;1253;67566;-47
2023/06/09 04:55:52;;;;;;;;;;;;;;;18.86;100.00;100098.69;105729;1256;72760;-45
2023/06/09 04:58:19;;;;;;;1.90;0.90;;;;;;;18.92;100.00;100101.27;105569;1254;61763;-47
2023/06/09 05:00:48;;;;;;;1.40;1.20;;;;;;;18.97;100.00;100097.42;105805;1259;60502;-46
2023/06/09 05:03:17;;;;;;;1.50;1.20;;;;;;;19.02;100.00;100098.35;105154;1253;74326;-46
2023/06/09 05:05:46;;;;;;;1.50;1.20;;;;;;;19.07;100.00;100098.90;105625;1256;69482;-47
2023/06/09 05:08:13;;;;;;;3.50;1.50;;;;;;;19.12;100.00;100101.40;105253;1259;72635;-46
2023/06/09 05:10:41;;;;;;;2.20;1.70;;;;;;;19.20;100.00;100100.91;105237;1257;60475;-47
2023/06/09 05:13:09;;;;;;;1.40;1.30;;;;;;;19.31;100.00;100105.32;105253;1256;60841;-48
2023/06/09 05:15:36;;;;;;;1.70;1.30;;;;;;;19.41;100.00;100103.27;105093;1259;74352;-47
2023/06/09 05:18:04;;;;;;;2.10;1.10;;;;;;;19.51;100.00;100104.15;104975;1259;67593;-46
2023/06/09 05:20:32;;;;;;;3.30;1.30;;;;;;;19.60;100.00;100106.08;108363;1253;72200;-48
2023/06/09 05:22:59;;;;;;;2.30;1.00;;;;;;;19.70;100.00;100106.25;104967;1254;60565;-46
2023/06/09 05:25:27;;;;;;;2.10;1.60;;;;;;;19.80;100.00;100111.48;104631;1254;60780;-46
2023/06/09 05:27:54;;;;;;;2.30;1.20;;;;;;;19.89;100.00;100113.05;105079;1257;73848;-47
2023/06/09 05:30:21;;;;;;;1.30;1.20;;;;;;;19.97;100.00;100119.32;106325;1256;67678;-47
2023/06/09 05:32:49;;;;;;;3.90;1.30;;;;;;;20.03;100.00;100118.67;104626;1256;71347;-46
2023/06/09 05:35:17;;;;;;;2.10;1.20;;;;;;;20.05;100.00;100118.29;105091;1254;61056;-45
2023/06/09 05:37:49;;;;;;;2.00;1.20;;;;;;;20.10;100.00;100120.98;104914;1253;60416;-46
2023/06/09 05:40:18;;;;;;;2.60;1.10;;;;;;;20.17;100.00;100121.34;105093;1254;74271;-47
2023/06/09 05:42:46;;;;;;;4.50;1.00;;;;;;;20.25;100.00;100125.54;105311;1257;67644;-47
2023/06/09 05:45:14;;;;;;;3.90;1.00;;;;;;;20.35;100.00;100127.11;105611;1259;72463;-45
2023/06/09 05:47:42;;;;;;;2.40;1.00;;;;;;;20.46;100.00;100131.73;105340;1254;62265;-47
2023/06/09 05:50:09;;;;;;;1.10;1.00;;;;;;;20.56;100.00;100130.81;107492;1253;60423;-48
2023/06/09 05:52:37;;;;;;;3.50;1.20;;;;;;;20.66;100.00;100135.45;106126;1255;74262;-46
2023/06/09 05:55:05;;;;;;;3.20;1.30;;;;;;;20.77;100.00;100141.14;105258;1259;67344;-47
2023/06/09 05:57:32;;;;;;;2.10;1.10;;;;;;;20.84;100.00;100143.27;109063;1253;72607;-48
2023/06/09 06:00:07;;;;;;;1.20;0.90;;;;;;;20.93;100.00;100145.63;108907;1254;59326;-47
2023/06/09 06:02:45;;;;;;;1.30;0.90;;;;;;;21.02;100.00;100151.41;109008;1253;59540;-46
2023/06/09 06:05:12;;;;;;;2.00;1.50;;;;;;;21.10;100.00;100152.55;109094;1253;73759;-47
2023/06/09 06:07:40;;;;;;;1.10;0.90;;;;;;;21.19;100.00;100157.61;108981;1255;67686;-47
2023/06/09 06:10:07;;;;;;;2.60;0.90;;;;;;;21.28;100.00;100161.09;108819;1253;72866;-47
2023/06/09 06:12:35;;;;;;;2.50;0.90;;;;;;;21.36;100.00;100158.91;109052;1253;60076;-49
2023/06/09 06:15:03;;;;;;;2.00;1.10;;;;;;;21.45;100.00;100159.70;107575;1253;60425;-48
2023/06/09 06:17:30;;;;;;;1.10;0.80;;;;;;;21.56;100.00;100165.74;108882;1253;73829;-46
2023/06/09 06:19:58;;;;;;;1.20;0.80;;;;;;;21.65;100.00;100167.67;108896;1253;67894;-47
2023/06/09 06:22:25;;;;;;;1.30;0.80;;;;;;;21.73;100.00;100169.91;108472;1254;72621;-48
2023/06/09 06:24:53;;;;;;;2.10;0.90;;;;;;;21.78;100.00;100177.67;105331;1259;60384;-47
2023/06/09 06:27:20;;;;;;;2.10;0.80;;;;;;;21.84;100.00;100175.44;105030;1259;60418;-48
2023/06/09 06:29:48;;;;;;;2.00;0.90;;;;;;;21.92;100.00;100174.63;108987;1258;73856;-46
2023/06/09 06:32:15;;;;;;;0.90;0.80;;;;;;;21.99;100.00;100176.76;105453;1254;67933;-49
2023/06/09 06:34:42;;;;;;;3.10;1.00;;;;;;;22.03;100.00;100181.29;104777;1253;72711;-47
2023/06/09 06:37:09;;;;;;;2.90;0.80;;;;;;;22.08;100.00;100182.67;104991;1259;60501;-48
2023/06/09 06:39:37;;;;;;;6.50;0.90;;;;;;;22.14;100.00;100186.36;104969;1259;60568;-47
2023/06/09 06:42:05;;;;;;;1.30;0.80;;;;;;;22.20;100.00;100188.67;105301;1259;74731;-47
2023/06/09 06:44:36;;;;;;;2.10;0.80;;;;;;;22.27;100.00;100189.41;105503;1254;67910;-48
2023/06/09 06:47:03;;;;;;;1.20;0.70;;;;;;;22.33;100.00;100195.82;105388;1259;72869;-48
2023/06/09 06:49:30;;;;;;;2.30;0.80;;;;;;;22.39;100.00;100194.11;105344;1254;62277;-48
2023/06/09 06:51:58;;;;;;;1.80;0.80;;;;;;;22.47;100.00;100197.39;105421;1259;60520;-48
2023/06/09 06:54:25;;;;;;;1.70;0.80;;;;;;;22.57;100.00;100196.88;105136;1256;72641;-48
2023/06/09 06:56:52;;;;;;;2.30;0.70;;;;;;;22.66;100.00;100200.27;104705;1253;67628;-49
2023/06/09 06:59:20;;;;;;;0.80;0.70;;;;;;;22.73;100.00;100200.52;104939;1259;72692;-47
2023/06/09 07:01:47;;;;;;;1.10;0.60;;;;;;;22.83;100.00;100206.05;105294;1256;60600;-47
2023/06/09 07:04:15;;;;;;;0.90;0.70;;;;;;;22.92;100.00;100207.21;105022;1253;61206;-48
2023/06/09 07:06:42;;;;;;;0.60;0.50;;;;;;;23.00;100.00;100205.35;104808;1253;74276;-48
2023/06/09 07:09:10;;;;;;;1.20;0.80;;;;;;;23.07;100.00;100201.75;105106;1256;66640;-49
2023/06/09 07:11:37;;;;;;;2.00;0.60;;;;;;;23.15;100.00;100203.80;104939;1257;71380;-49
2023/06/09 07:14:04;;;;;;;1.60;0.70;;;;;;;23.23;100.00;100209.02;105076;1259;60539;-49
2023/06/09 07:16:31;;;;;;;0.90;0.80;;;;;;;23.32;100.00;100213.66;105296;1253;60664;-49
2023/06/09 07:18:59;;;;;;;2.10;0.60;;;;;;;23.42;100.00;100216.95;104931;1259;72935;-50
2023/06/09 07:21:28;;;;;;;0.70;0.60;;;;;;;23.51;100.00;100217.45;104959;1253;67764;-49
2023/06/09 07:23:58;;;;;;;0.60;0.60;;;;;;;23.59;100.00;100217.23;105149;1259;72658;-48
2023/06/09 07:26:26;;;;;;;1.50;0.60;;;;;;;23.64;100.00;100222.59;105168;1254;61140;-47
2023/06/09 07:28:53;;;;;;;0.70;0.50;;;;;;;23.71;100.00;100221.91;105026;1255;60612;-49
2023/06/09 07:31:20;;;;;;;1.00;0.60;;;;;;;23.79;100.00;100219.36;105057;1259;74208;-48
2023/06/09 07:33:48;;;;;;;1.40;0.60;;;;;;;23.88;100.00;100223.25;106439;1253;68031;-47
2023/06/09 07:36:16;;;;;;;0.60;0.60;;;;;;;23.95;100.00;100225.67;105265;1259;71371;-47
2023/06/09 07:38:44;;;;;;;1.20;0.60;;;;;;;24.02;100.00;100223.27;104818;1254;60510;-50
2023/06/09 07:41:11;;;;;;;1.10;0.60;;;;;;;24.11;100.00;100227.30;105193;1254;60647;-49
2023/06/09 07:43:39;;;;;;;1.00;0.50;;;;;;;24.22;100.00;100227.48;104937;1254;73802;-48
2023/06/09 07:46:07;;;;;;;0.80;0.60;;;;;;;24.31;100.00;100236.45;104932;1259;67580;-50
2023/06/09 07:48:37;;;;;;;2.80;0.70;;;;;;;24.40;100.00;100236.86;105731;1259;73236;-48
2023/06/09 07:51:04;;;;;;;4.30;0.50;;;;;;;24.48;100.00;100241.91;105022;1257;60627;-49
2023/06/09 07:53:32;;;;;;;5.40;0.90;;;;;;;24.55;100.00;100243.78;105164;1254;60569;-49
2023/06/09 07:55:59;;;;;;;3.10;0.60;;;;;;;24.63;100.00;100244.70;105006;1253;73843;-49
2023/06/09 07:58:27;;;;;;;1.40;0.50;;;;;;;24.66;100.00;100248.38;105622;1259;69837;-48
2023/06/09 08:00:54;;;;;;;1.30;0.60;;;;;;;24.71;100.00;100243.65;104905;1254;72664;-48
2023/06/09 08:03:22;;;;;;;2.50;0.60;;;;;;;24.78;100.00;100249.00;104831;1253;60584;-50
2023/06/09 08:05:49;;;;;;;1.60;0.60;;;;;;;24.85;100.00;100247.23;105651;1257;61629;-50
2023/06/09 08:08:17;;;;;;;3.90;0.50;;;;;;;24.86;100.00;100247.23;105337;1257;73809;-49
2023/06/09 08:10:44;;;;;;;3.90;0.50;;;;;;;24.87;100.00;100251.91;105282;1259;66627;-50
2023/06/09 08:13:15;;;;;;;0.60;0.50;;;;;;;24.92;100.00;100250.76;105070;1259;72682;-51
2023/06/09 08:15:44;;;;;;;3.00;0.70;;;;;;;24.98;100.00;100250.21;105365;1259;60548;-50
2023/06/09 08:18:11;;;;;;;0.60;0.60;;;;;;;25.03;100.00;100249.98;105165;1258;60961;-50
2023/06/09 08:20:42;;;;;;;1.80;0.60;;;;;;;25.08;100.00;100253.02;105228;1254;73793;-50
2023/06/09 08:23:09;;;;;;;1.20;0.60;;;;;;;25.14;100.00;100250.53;105175;1259;67733;-50
2023/06/09 08:25:37;;;;;;;1.70;0.50;;;;;;;25.14;100.00;100253.49;105097;1253;74650;-50
2023/06/09 08:28:08;;;;;;;1.60;0.60;;;;;;;25.15;100.00;100254.85;105198;1258;60421;-50
2023/06/09 08:30:35;;;;;;;3.60;0.60;;;;;;;25.21;100.00;100253.44;105032;1257;60440;-50
2023/06/09 08:33:02;;;;;;;5.40;0.60;;;;;;;25.30;100.00;100250.56;105156;1254;73863;-50
2023/06/09 08:35:32;;;;;;;1.00;0.50;;;;;;;25.40;100.00;100244.44;105599;1257;67509;-50
2023/06/09 08:38:00;;;;;;;1.40;0.50;;;;;;;25.46;100.00;100247.59;105062;1254;72700;-50
2023/06/09 08:40:27;;;;;;;0.50;0.50;;;;;;;25.53;100.00;100249.44;105098;1253;60529;-51
2023/06/09 08:42:58;;;;;;;1.20;0.50;;;;;;;25.62;100.00;100250.38;105177;1254;60790;-51
2023/06/09 08:45:25;;;;;;;0.60;0.50;;;;;;;25.72;100.00;100247.91;105167;1259;73926;-49
2023/06/09 08:47:54;;;;;;;1.30;0.50;;;;;;;25.79;100.00;100255.48;105223;1259;67026;-49
2023/06/09 08:50:23;;;;;;;1.10;0.50;;;;;;;25.86;100.00;100253.77;106932;1253;73159;-50
2023/06/09 08:52:50;;;;;;;2.30;0.50;;;;;;;25.93;100.00;100257.27;105203;1260;291926;-49
2023/06/09 08:56:02;;;;;;;4.00;0.70;;;;;;;26.03;100.00;100251.48;102397;1295;601685;-50
2023/06/09 08:58:29;;;;;;;2.40;0.40;;;;;;;26.07;100.00;100252.16;104305;1276;60566;-49
2023/06/09 09:00:57;;;;;;;3.80;0.60;;;;;;;26.15;100.00;100250.01;104231;1267;60073;-49
2023/06/09 09:03:24;;;;;;;1.30;0.50;;;;;;;26.17;100.00;100242.21;104027;1272;73283;-48
2023/06/09 09:05:51;;;;;;;2.40;0.60;;;;;;;26.17;100.00;100244.45;104118;1272;68244;-55
2023/06/09 09:08:19;;;;;;;1.70;0.40;;;;;;;26.19;100.00;100246.39;104512;1269;71408;-48
2023/06/09 09:10:46;;;;;;;3.20;0.50;;;;;;;26.20;100.00;100245.46;108069;1265;233950;-49
2023/06/09 09:13:14;;;;;;;3.50;0.50;;;;;;;26.16;100.00;100244.20;108299;1265;60043;-48
2023/06/09 09:15:48;;;;;;;3.50;0.40;;;;;;;26.21;100.00;100237.39;108387;1262;72270;-49
2023/06/09 09:18:17;;;;;;;1.00;0.50;;;;;;;26.32;100.00;100233.70;106552;1264;67352;-47
2023/06/09 09:20:45;;;;;;;0.60;0.50;;;;;;;26.42;100.00;100228.90;105464;1262;72657;-48
2023/06/09 09:23:13;;;;;;;4.60;0.40;;;;;;;26.52;100.00;100231.71;104598;1268;60708;-47
2023/06/09 09:25:40;;;;;;;6.60;1.10;;;;;;;26.63;100.00;100235.66;104811;1263;60206;-48
2023/06/09 09:28:12;;;;;;;1.50;0.50;;;;;;;26.69;100.00;100240.55;104664;1263;71813;-48
2023/06/09 09:30:58;;;;;;;2.90;0.50;;;;;;;26.72;100.00;100238.19;108380;1262;67649;-50
2023/06/09 09:33:29;;;;;;;2.30;0.50;;;;;;;26.68;100.00;100236.25;106015;1266;73246;-47
2023/06/09 09:35:57;;;;;;;2.00;0.50;;;;;;;26.62;100.00;100234.80;104239;1267;60094;-47
2023/06/09 09:38:29;;;;;;;2.40;0.50;;;;;;;26.58;100.00;100230.34;104312;1267;59827;-47
2023/06/09 09:40:58;;;;;;;1.90;0.60;;;;;;;26.57;100.00;100233.95;105826;1262;73435;-47
2023/06/09 09:43:29;;;;;;;2.10;0.60;;;;;;;26.57;100.00;100230.45;108449;1263;67583;-48
2023/06/09 09:46:05;;;;;;;1.30;0.50;;;;;;;26.56;100.00;100226.73;108363;1263;71627;-48
2023/06/09 09:48:33;;;;;;;0.50;0.50;;;;;;;26.50;100.00;100220.36;105550;1263;60219;-48
2023/06/09 09:51:00;;;;;;;2.90;0.50;;;;;;;26.44;100.00;100219.55;104878;1263;59580;-47
2023/06/09 09:53:28;;;;;;;0.70;0.50;;;;;;;26.35;100.00;100216.58;104674;1262;73466;-48
2023/06/09 09:55:57;;;;;;;2.40;0.50;;;;;;;26.27;100.00;100211.89;104178;1262;67597;-48
2023/06/09 09:58:30;;;;;;;3.10;0.50;;;;;;;26.20;100.00;100206.27;104785;1263;73164;-46
2023/06/09 10:00:58;;;;;;;1.40;0.50;;;;;;;26.11;100.00;100200.95;104497;1267;59743;-47
2023/06/09 10:03:26;;;;;;;0.90;0.60;;;;;;;26.02;100.00;100198.92;105756;1262;60084;-46
2023/06/09 10:05:55;;;;;;;1.40;0.50;;;;;;;25.99;100.00;100199.29;105253;1262;72937;-47
2023/06/09 10:08:30;;;;;;;0.70;0.40;;;;;;;26.00;100.00;100188.16;104280;1264;68062;-47
2023/06/09 10:10:59;;;;;;;1.30;1.30;;;;;;;26.00;100.00;100191.41;105486;1263;72723;-48
2023/06/09 10:13:27;;;;;;;1.50;0.50;;;;;;;25.97;100.00;100185.44;104738;1269;59687;-47
2023/06/09 10:15:55;;;;;;;41.50;4.60;;;;;;;25.94;100.00;100179.09;104780;1267;60118;-47
2023/06/09 10:18:23;;;;;;;4.60;0.70;;;;;;;25.89;100.00;100174.90;104773;1264;71793;-48
2023/06/09 10:20:54;;;;;;;1.70;0.50;;;;;;;25.84;100.00;100168.70;104795;1265;66338;-48
2023/06/09 10:23:21;;;;;;;1.40;0.50;;;;;;;25.79;100.00;100167.06;104908;1263;72711;-47
2023/06/09 10:25:49;;;;;;;11.00;1.50;;;;;;;25.75;100.00;100158.46;104404;1269;60004;-45
2023/06/09 10:28:17;;;;;;;8.70;0.80;;;;;;;25.71;100.00;100150.92;105014;1264;60012;-47
2023/06/09 10:30:46;;;;;;;2.30;0.60;;;;;;;25.68;100.00;100142.64;104672;1266;72958;-47
2023/06/09 10:33:33;;;;;;;3.70;0.70;;;;;;;25.63;100.00;100142.24;105698;1262;68167;-47
2023/06/09 10:36:05;;;;;;;2.90;0.50;;;;;;;25.57;100.00;100134.04;105066;1265;72738;-46
2023/06/09 10:38:47;;;;;;;1.90;0.50;;;;;;;25.53;100.00;100132.03;105039;1260;60207;-47
2023/06/09 10:41:28;;;;;;;20.10;0.80;;;;;;;25.50;100.00;100125.73;105457;1263;59562;-46
2023/06/09 10:44:16;;;;;;;4.40;1.10;;;;;;;25.48;100.00;100119.88;105344;1263;73010;-47
2023/06/09 10:46:45;;;;;;;6.90;0.60;;;;;;;25.45;100.00;100119.61;104486;1259;67868;-46
2023/06/09 10:49:25;;;;;;;7.50;0.80;;;;;;;25.45;100.00;100110.53;108571;1259;71412;-47
2023/06/09 10:51:53;;;;;;;5.10;0.70;;;;;;;25.44;100.00;100105.82;104794;1263;60074;-46
2023/06/09 10:54:25;;;;;;;1.30;0.50;;;;;;;25.45;100.00;100097.83;104990;1264;59743;-47
2023/06/09 10:57:00;;;;;;;2.60;0.50;;;;;;;25.45;100.00;100093.24;104931;1263;75417;-47
2023/06/09 10:59:31;;;;;;;4.20;0.60;;;;;;;25.43;100.00;100090.67;105315;1259;67564;-46
2023/06/09 11:02:05;;;;;;;2.40;0.70;;;;;;;25.43;100.00;100084.95;105749;1259;72456;-46
2023/06/09 11:04:44;;;;;;;2.70;0.50;;;;;;;25.43;100.00;100078.92;105128;1260;59625;-46
2023/06/09 11:07:22;;;;;;;1.20;0.60;;;;;;;25.44;100.00;100070.34;104339;1259;60548;-47
2023/06/09 11:09:50;;;;;;;4.10;0.60;;;;;;;25.46;100.00;100068.17;105002;1260;70810;-47
2023/06/09 11:12:36;;;;;;;4.20;0.70;;;;;;;25.47;100.00;100067.41;104918;1259;68411;-47
2023/06/09 11:15:04;;;;;;;3.20;0.50;;;;;;;25.49;100.00;100060.41;104975;1263;72641;-47
2023/06/09 11:17:37;;;;;;;2.70;0.50;;;;;;;25.50;100.00;100050.28;105284;1265;60173;-48
2023/06/09 11:20:05;;;;;;;2.50;0.60;;;;;;;25.49;100.00;100047.96;104815;1263;60021;-46